sensor_id;sensor_type;location;lat;lon;timestamp;P1;durP1;ratioP1;P2;durP2;ratioP2
4023;SDS011;2026;51.002;13.668;2022-08-19T00:01:07;21.43;;;18.47;;
4023;SDS011;2026;51.002;13.668;2022-08-19T00:06:11;26.63;;;18.23;;
4023;SDS011;2026;51.002;13.668;2022-08-19T00:11:16;19.73;;;17.60;;
4023;SDS011;2026;51.002;13.668;2022-08-19T00:16:27;23.30;;;18.20;;
4023;SDS011;2026;51.002;13.668;2022-08-19T00:21:30;25.73;;;19.50;;
4023;SDS011;2026;51.002;13.668;2022-08-19T00:26:34;35.90;;;25.17;;
4023;SDS011;2026;51.002;13.668;2022-08-19T00:31:40;23.07;;;18.90;;
4023;SDS011;2026;51.002;13.668;2022-08-19T00:36:44;24.07;;;19.30;;
4023;SDS011;2026;51.002;13.668;2022-08-19T00:41:48;24.20;;;20.37;;
4023;SDS011;2026;51.002;13.668;2022-08-19T00:46:54;22.70;;;19.30;;
4023;SDS011;2026;51.002;13.668;2022-08-19T00:52:02;25.57;;;20.43;;
4023;SDS011;2026;51.002;13.668;2022-08-19T00:57:10;24.90;;;20.27;;
4023;SDS011;2026;51.002;13.668;2022-08-19T01:02:19;26.70;;;21.00;;
4023;SDS011;2026;51.002;13.668;2022-08-19T01:07:22;25.93;;;21.20;;
4023;SDS011;2026;51.002;13.668;2022-08-19T01:12:27;29.67;;;21.30;;
4023;SDS011;2026;51.002;13.668;2022-08-19T01:17:33;25.67;;;21.27;;
4023;SDS011;2026;51.002;13.668;2022-08-19T01:22:41;25.10;;;20.57;;
4023;SDS011;2026;51.002;13.668;2022-08-19T01:27:48;25.00;;;20.90;;
4023;SDS011;2026;51.002;13.668;2022-08-19T01:32:54;25.90;;;21.27;;
4023;SDS011;2026;51.002;13.668;2022-08-19T01:38:00;27.80;;;21.87;;
4023;SDS011;2026;51.002;13.668;2022-08-19T01:43:09;23.30;;;20.80;;
4023;SDS011;2026;51.002;13.668;2022-08-19T01:48:13;23.53;;;21.03;;
4023;SDS011;2026;51.002;13.668;2022-08-19T01:53:18;25.07;;;21.17;;
4023;SDS011;2026;51.002;13.668;2022-08-19T01:58:24;24.37;;;21.20;;
4023;SDS011;2026;51.002;13.668;2022-08-19T02:03:33;24.53;;;21.90;;
4023;SDS011;2026;51.002;13.668;2022-08-19T02:08:38;27.00;;;22.00;;
4023;SDS011;2026;51.002;13.668;2022-08-19T02:13:42;27.80;;;24.20;;
4023;SDS011;2026;51.002;13.668;2022-08-19T02:18:45;23.70;;;20.60;;
4023;SDS011;2026;51.002;13.668;2022-08-19T02:23:51;24.37;;;21.20;;
4023;SDS011;2026;51.002;13.668;2022-08-19T02:28:55;25.50;;;21.73;;
4023;SDS011;2026;51.002;13.668;2022-08-19T02:34:00;27.57;;;22.73;;
4023;SDS011;2026;51.002;13.668;2022-08-19T02:39:04;23.13;;;20.20;;
4023;SDS011;2026;51.002;13.668;2022-08-19T02:44:08;25.80;;;21.90;;
4023;SDS011;2026;51.002;13.668;2022-08-19T02:49:31;25.67;;;22.53;;
4023;SDS011;2026;51.002;13.668;2022-08-19T02:54:36;25.23;;;22.53;;
4023;SDS011;2026;51.002;13.668;2022-08-19T02:59:39;23.63;;;21.13;;
4023;SDS011;2026;51.002;13.668;2022-08-19T03:04:43;27.57;;;23.07;;
4023;SDS011;2026;51.002;13.668;2022-08-19T03:09:47;26.03;;;23.23;;
4023;SDS011;2026;51.002;13.668;2022-08-19T03:14:50;28.57;;;24.97;;
4023;SDS011;2026;51.002;13.668;2022-08-19T03:19:54;31.20;;;26.23;;
4023;SDS011;2026;51.002;13.668;2022-08-19T03:24:58;30.27;;;25.60;;
4023;SDS011;2026;51.002;13.668;2022-08-19T03:30:02;29.33;;;24.50;;
4023;SDS011;2026;51.002;13.668;2022-08-19T03:35:07;29.60;;;24.77;;
4023;SDS011;2026;51.002;13.668;2022-08-19T03:40:11;28.47;;;24.60;;
4023;SDS011;2026;51.002;13.668;2022-08-19T03:45:17;24.87;;;22.17;;
4023;SDS011;2026;51.002;13.668;2022-08-19T03:50:20;26.63;;;22.37;;
4023;SDS011;2026;51.002;13.668;2022-08-19T03:55:25;28.70;;;22.80;;
4023;SDS011;2026;51.002;13.668;2022-08-19T04:00:28;27.07;;;22.53;;
4023;SDS011;2026;51.002;13.668;2022-08-19T04:05:31;28.30;;;22.10;;
4023;SDS011;2026;51.002;13.668;2022-08-19T04:10:36;24.63;;;22.10;;
4023;SDS011;2026;51.002;13.668;2022-08-19T04:15:40;28.70;;;23.70;;
4023;SDS011;2026;51.002;13.668;2022-08-19T04:20:46;24.90;;;21.93;;
4023;SDS011;2026;51.002;13.668;2022-08-19T04:25:51;27.10;;;24.20;;
4023;SDS011;2026;51.002;13.668;2022-08-19T04:30:55;30.30;;;25.20;;
4023;SDS011;2026;51.002;13.668;2022-08-19T04:35:58;28.47;;;22.03;;
4023;SDS011;2026;51.002;13.668;2022-08-19T04:41:03;28.70;;;24.20;;
4023;SDS011;2026;51.002;13.668;2022-08-19T04:46:23;26.30;;;23.40;;
4023;SDS011;2026;51.002;13.668;2022-08-19T04:51:41;28.70;;;23.03;;
4023;SDS011;2026;51.002;13.668;2022-08-19T04:56:47;25.10;;;22.20;;
4023;SDS011;2026;51.002;13.668;2022-08-19T05:01:51;29.53;;;24.30;;
4023;SDS011;2026;51.002;13.668;2022-08-19T05:06:54;31.90;;;24.07;;
4023;SDS011;2026;51.002;13.668;2022-08-19T05:12:03;28.47;;;23.87;;
4023;SDS011;2026;51.002;13.668;2022-08-19T05:17:07;29.30;;;23.90;;
4023;SDS011;2026;51.002;13.668;2022-08-19T05:22:30;30.83;;;22.80;;
4023;SDS011;2026;51.002;13.668;2022-08-19T05:27:38;27.37;;;23.83;;
4023;SDS011;2026;51.002;13.668;2022-08-19T05:32:41;28.30;;;22.57;;
4023;SDS011;2026;51.002;13.668;2022-08-19T05:37:45;26.43;;;22.00;;
4023;SDS011;2026;51.002;13.668;2022-08-19T05:42:49;24.07;;;21.07;;
4023;SDS011;2026;51.002;13.668;2022-08-19T05:47:55;22.93;;;20.10;;
4023;SDS011;2026;51.002;13.668;2022-08-19T05:52:59;25.03;;;20.77;;
4023;SDS011;2026;51.002;13.668;2022-08-19T05:58:04;20.73;;;17.67;;
4023;SDS011;2026;51.002;13.668;2022-08-19T06:03:09;19.27;;;16.70;;
4023;SDS011;2026;51.002;13.668;2022-08-19T06:08:13;17.83;;;15.93;;
4023;SDS011;2026;51.002;13.668;2022-08-19T06:13:21;18.83;;;15.43;;
4023;SDS011;2026;51.002;13.668;2022-08-19T06:18:33;15.77;;;14.13;;
4023;SDS011;2026;51.002;13.668;2022-08-19T06:23:36;15.73;;;13.50;;
4023;SDS011;2026;51.002;13.668;2022-08-19T06:28:41;17.23;;;13.77;;
4023;SDS011;2026;51.002;13.668;2022-08-19T06:33:48;19.50;;;13.23;;
4023;SDS011;2026;51.002;13.668;2022-08-19T06:38:52;13.33;;;12.03;;
4023;SDS011;2026;51.002;13.668;2022-08-19T06:43:57;17.03;;;13.30;;
4023;SDS011;2026;51.002;13.668;2022-08-19T06:49:00;14.63;;;12.47;;
4023;SDS011;2026;51.002;13.668;2022-08-19T06:54:06;20.30;;;14.70;;
4023;SDS011;2026;51.002;13.668;2022-08-19T06:59:22;21.27;;;15.60;;
4023;SDS011;2026;51.002;13.668;2022-08-19T07:04:29;25.63;;;18.23;;
4023;SDS011;2026;51.002;13.668;2022-08-19T07:09:34;27.03;;;18.27;;
4023;SDS011;2026;51.002;13.668;2022-08-19T07:14:40;22.23;;;17.00;;
4023;SDS011;2026;51.002;13.668;2022-08-19T07:19:44;22.70;;;18.37;;
4023;SDS011;2026;51.002;13.668;2022-08-19T07:24:47;20.57;;;17.30;;
4023;SDS011;2026;51.002;13.668;2022-08-19T07:29:53;24.60;;;18.50;;
4023;SDS011;2026;51.002;13.668;2022-08-19T07:35:00;21.03;;;18.43;;
4023;SDS011;2026;51.002;13.668;2022-08-19T07:40:05;21.43;;;17.57;;
4023;SDS011;2026;51.002;13.668;2022-08-19T07:45:11;21.77;;;16.87;;
4023;SDS011;2026;51.002;13.668;2022-08-19T07:50:14;22.27;;;18.77;;
4023;SDS011;2026;51.002;13.668;2022-08-19T07:55:20;21.10;;;18.00;;
4023;SDS011;2026;51.002;13.668;2022-08-19T08:00:45;21.77;;;17.50;;
4023;SDS011;2026;51.002;13.668;2022-08-19T08:05:50;23.20;;;18.57;;
4023;SDS011;2026;51.002;13.668;2022-08-19T08:11:22;26.67;;;18.67;;
4023;SDS011;2026;51.002;13.668;2022-08-19T08:16:33;22.93;;;19.20;;
4023;SDS011;2026;51.002;13.668;2022-08-19T08:21:47;27.43;;;19.30;;
4023;SDS011;2026;51.002;13.668;2022-08-19T08:26:51;24.40;;;19.00;;
4023;SDS011;2026;51.002;13.668;2022-08-19T08:31:59;23.27;;;18.07;;
4023;SDS011;2026;51.002;13.668;2022-08-19T08:37:03;26.20;;;19.80;;
4023;SDS011;2026;51.002;13.668;2022-08-19T08:42:07;27.67;;;20.33;;
4023;SDS011;2026;51.002;13.668;2022-08-19T08:47:19;18.93;;;16.93;;
4023;SDS011;2026;51.002;13.668;2022-08-19T08:52:25;23.10;;;17.70;;
4023;SDS011;2026;51.002;13.668;2022-08-19T08:57:35;21.77;;;18.57;;
4023;SDS011;2026;51.002;13.668;2022-08-19T09:02:44;19.17;;;17.10;;
4023;SDS011;2026;51.002;13.668;2022-08-19T09:07:52;19.50;;;15.80;;
4023;SDS011;2026;51.002;13.668;2022-08-19T09:13:05;17.83;;;13.83;;
4023;SDS011;2026;51.002;13.668;2022-08-19T09:18:16;15.27;;;13.67;;
4023;SDS011;2026;51.002;13.668;2022-08-19T09:23:20;14.13;;;12.70;;
4023;SDS011;2026;51.002;13.668;2022-08-19T09:28:27;13.93;;;12.53;;
4023;SDS011;2026;51.002;13.668;2022-08-19T09:33:34;16.67;;;13.93;;
4023;SDS011;2026;51.002;13.668;2022-08-19T09:38:38;14.23;;;12.73;;
4023;SDS011;2026;51.002;13.668;2022-08-19T09:43:45;16.20;;;13.90;;
4023;SDS011;2026;51.002;13.668;2022-08-19T09:48:52;17.73;;;14.95;;
4023;SDS011;2026;51.002;13.668;2022-08-19T09:53:58;16.33;;;14.73;;
4023;SDS011;2026;51.002;13.668;2022-08-19T09:59:05;16.93;;;13.83;;
4023;SDS011;2026;51.002;13.668;2022-08-19T10:04:10;12.83;;;11.50;;
4023;SDS011;2026;51.002;13.668;2022-08-19T10:09:20;13.40;;;12.00;;
4023;SDS011;2026;51.002;13.668;2022-08-19T10:14:34;13.70;;;10.17;;
4023;SDS011;2026;51.002;13.668;2022-08-19T10:19:41;10.77;;;9.67;;
4023;SDS011;2026;51.002;13.668;2022-08-19T10:24:55;12.03;;;10.00;;
4023;SDS011;2026;51.002;13.668;2022-08-19T10:29:58;10.70;;;9.20;;
4023;SDS011;2026;51.002;13.668;2022-08-19T10:35:05;17.10;;;12.67;;
4023;SDS011;2026;51.002;13.668;2022-08-19T10:40:09;10.03;;;8.70;;
4023;SDS011;2026;51.002;13.668;2022-08-19T10:45:13;8.93;;;8.00;;
4023;SDS011;2026;51.002;13.668;2022-08-19T10:50:18;7.70;;;6.60;;
4023;SDS011;2026;51.002;13.668;2022-08-19T10:55:39;6.53;;;5.93;;
4023;SDS011;2026;51.002;13.668;2022-08-19T11:01:00;5.87;;;5.37;;
4023;SDS011;2026;51.002;13.668;2022-08-19T11:06:05;6.47;;;5.88;;
4023;SDS011;2026;51.002;13.668;2022-08-19T11:11:10;6.57;;;5.97;;
4023;SDS011;2026;51.002;13.668;2022-08-19T11:16:14;7.38;;;6.28;;
4023;SDS011;2026;51.002;13.668;2022-08-19T11:21:22;6.32;;;5.72;;
4023;SDS011;2026;51.002;13.668;2022-08-19T11:26:27;10.23;;;8.10;;
4023;SDS011;2026;51.002;13.668;2022-08-19T11:31:32;7.70;;;7.03;;
4023;SDS011;2026;51.002;13.668;2022-08-19T11:36:40;10.93;;;8.30;;
4023;SDS011;2026;51.002;13.668;2022-08-19T11:41:46;8.45;;;7.65;;
4023;SDS011;2026;51.002;13.668;2022-08-19T11:46:50;11.43;;;8.40;;
4023;SDS011;2026;51.002;13.668;2022-08-19T11:51:55;14.40;;;13.02;;
4023;SDS011;2026;51.002;13.668;2022-08-19T11:56:59;16.57;;;14.90;;
4023;SDS011;2026;51.002;13.668;2022-08-19T12:02:04;15.48;;;13.98;;
4023;SDS011;2026;51.002;13.668;2022-08-19T12:07:09;14.95;;;13.50;;
4023;SDS011;2026;51.002;13.668;2022-08-19T12:12:12;18.75;;;13.82;;
4023;SDS011;2026;51.002;13.668;2022-08-19T12:17:17;20.75;;;17.20;;
4023;SDS011;2026;51.002;13.668;2022-08-19T12:22:21;20.47;;;17.60;;
4023;SDS011;2026;51.002;13.668;2022-08-19T12:27:25;26.10;;;21.03;;
4023;SDS011;2026;51.002;13.668;2022-08-19T12:32:41;23.80;;;19.63;;
4023;SDS011;2026;51.002;13.668;2022-08-19T12:37:46;22.53;;;20.13;;
4023;SDS011;2026;51.002;13.668;2022-08-19T12:42:58;25.00;;;21.67;;
4023;SDS011;2026;51.002;13.668;2022-08-19T12:48:01;23.73;;;20.57;;
4023;SDS011;2026;51.002;13.668;2022-08-19T12:53:27;24.67;;;20.70;;
4023;SDS011;2026;51.002;13.668;2022-08-19T12:58:30;28.77;;;22.97;;
4023;SDS011;2026;51.002;13.668;2022-08-19T13:03:35;31.10;;;23.60;;
4023;SDS011;2026;51.002;13.668;2022-08-19T13:08:42;22.80;;;19.57;;
4023;SDS011;2026;51.002;13.668;2022-08-19T13:13:47;31.30;;;25.90;;
4023;SDS011;2026;51.002;13.668;2022-08-19T13:18:52;29.30;;;24.07;;
4023;SDS011;2026;51.002;13.668;2022-08-19T13:23:58;27.00;;;23.13;;
4023;SDS011;2026;51.002;13.668;2022-08-19T13:29:01;30.37;;;24.27;;
4023;SDS011;2026;51.002;13.668;2022-08-19T13:34:26;27.07;;;21.67;;
4023;SDS011;2026;51.002;13.668;2022-08-19T13:39:33;36.00;;;25.60;;
4023;SDS011;2026;51.002;13.668;2022-08-19T13:44:37;38.03;;;27.50;;
4023;SDS011;2026;51.002;13.668;2022-08-19T13:49:40;35.10;;;27.90;;
4023;SDS011;2026;51.002;13.668;2022-08-19T13:54:46;40.30;;;30.60;;
4023;SDS011;2026;51.002;13.668;2022-08-19T13:59:49;45.97;;;30.30;;
4023;SDS011;2026;51.002;13.668;2022-08-19T14:04:52;41.70;;;31.40;;
4023;SDS011;2026;51.002;13.668;2022-08-19T14:09:57;43.53;;;29.00;;
4023;SDS011;2026;51.002;13.668;2022-08-19T14:15:04;41.50;;;28.77;;
4023;SDS011;2026;51.002;13.668;2022-08-19T14:20:09;42.97;;;29.50;;
4023;SDS011;2026;51.002;13.668;2022-08-19T14:25:21;40.57;;;29.40;;
4023;SDS011;2026;51.002;13.668;2022-08-19T14:30:29;37.20;;;27.93;;
4023;SDS011;2026;51.002;13.668;2022-08-19T14:35:33;35.37;;;25.70;;
4023;SDS011;2026;51.002;13.668;2022-08-19T14:40:38;34.60;;;27.10;;
4023;SDS011;2026;51.002;13.668;2022-08-19T14:45:43;39.13;;;28.02;;
4023;SDS011;2026;51.002;13.668;2022-08-19T14:50:47;46.97;;;30.93;;
4023;SDS011;2026;51.002;13.668;2022-08-19T14:55:51;42.27;;;30.57;;
4023;SDS011;2026;51.002;13.668;2022-08-19T15:00:55;43.13;;;30.43;;
4023;SDS011;2026;51.002;13.668;2022-08-19T15:05:59;40.13;;;29.33;;
4023;SDS011;2026;51.002;13.668;2022-08-19T15:11:07;37.20;;;27.47;;
4023;SDS011;2026;51.002;13.668;2022-08-19T15:16:12;38.20;;;26.67;;
4023;SDS011;2026;51.002;13.668;2022-08-19T15:21:18;33.27;;;26.07;;
4023;SDS011;2026;51.002;13.668;2022-08-19T15:26:29;32.30;;;25.95;;
4023;SDS011;2026;51.002;13.668;2022-08-19T15:31:33;31.80;;;25.20;;
4023;SDS011;2026;51.002;13.668;2022-08-19T15:36:39;32.72;;;24.60;;
4023;SDS011;2026;51.002;13.668;2022-08-19T15:41:43;33.63;;;26.90;;
4023;SDS011;2026;51.002;13.668;2022-08-19T15:46:47;32.33;;;26.40;;
4023;SDS011;2026;51.002;13.668;2022-08-19T15:51:51;34.83;;;26.27;;
4023;SDS011;2026;51.002;13.668;2022-08-19T15:56:56;33.67;;;26.70;;
4023;SDS011;2026;51.002;13.668;2022-08-19T16:02:17;31.70;;;25.70;;
4023;SDS011;2026;51.002;13.668;2022-08-19T16:07:39;33.83;;;25.13;;
4023;SDS011;2026;51.002;13.668;2022-08-19T16:12:43;32.77;;;25.30;;
4023;SDS011;2026;51.002;13.668;2022-08-19T16:17:47;31.20;;;24.27;;
4023;SDS011;2026;51.002;13.668;2022-08-19T16:22:58;30.77;;;22.93;;
4023;SDS011;2026;51.002;13.668;2022-08-19T16:28:02;28.42;;;23.35;;
4023;SDS011;2026;51.002;13.668;2022-08-19T16:33:08;40.67;;;25.43;;
4023;SDS011;2026;51.002;13.668;2022-08-19T16:38:11;28.37;;;24.10;;
4023;SDS011;2026;51.002;13.668;2022-08-19T16:43:16;27.53;;;22.20;;
4023;SDS011;2026;51.002;13.668;2022-08-19T16:48:20;27.70;;;22.40;;
4023;SDS011;2026;51.002;13.668;2022-08-19T16:53:24;24.13;;;20.40;;
4023;SDS011;2026;51.002;13.668;2022-08-19T16:58:33;29.93;;;23.10;;
4023;SDS011;2026;51.002;13.668;2022-08-19T17:03:37;31.77;;;24.60;;
4023;SDS011;2026;51.002;13.668;2022-08-19T17:08:41;31.20;;;24.13;;
4023;SDS011;2026;51.002;13.668;2022-08-19T17:13:50;33.10;;;24.57;;
4023;SDS011;2026;51.002;13.668;2022-08-19T17:18:54;27.13;;;22.40;;
4023;SDS011;2026;51.002;13.668;2022-08-19T17:23:59;28.80;;;22.90;;
4023;SDS011;2026;51.002;13.668;2022-08-19T17:29:05;32.93;;;24.67;;
4023;SDS011;2026;51.002;13.668;2022-08-19T17:34:08;32.57;;;22.53;;
4023;SDS011;2026;51.002;13.668;2022-08-19T17:39:11;25.67;;;21.10;;
4023;SDS011;2026;51.002;13.668;2022-08-19T17:44:16;29.80;;;23.87;;
4023;SDS011;2026;51.002;13.668;2022-08-19T17:49:19;26.10;;;20.80;;
4023;SDS011;2026;51.002;13.668;2022-08-19T17:54:22;26.70;;;22.00;;
4023;SDS011;2026;51.002;13.668;2022-08-19T17:59:35;26.23;;;21.10;;
4023;SDS011;2026;51.002;13.668;2022-08-19T18:04:39;27.47;;;21.50;;
4023;SDS011;2026;51.002;13.668;2022-08-19T18:09:49;27.03;;;21.47;;
4023;SDS011;2026;51.002;13.668;2022-08-19T18:14:54;24.13;;;20.00;;
4023;SDS011;2026;51.002;13.668;2022-08-19T18:19:59;24.80;;;20.13;;
4023;SDS011;2026;51.002;13.668;2022-08-19T18:25:03;26.77;;;21.37;;
4023;SDS011;2026;51.002;13.668;2022-08-19T18:30:11;32.93;;;23.53;;
4023;SDS011;2026;51.002;13.668;2022-08-19T18:35:15;30.67;;;22.60;;
4023;SDS011;2026;51.002;13.668;2022-08-19T18:40:21;31.40;;;24.37;;
4023;SDS011;2026;51.002;13.668;2022-08-19T18:45:45;30.47;;;23.00;;
4023;SDS011;2026;51.002;13.668;2022-08-19T18:51:07;30.20;;;23.67;;
4023;SDS011;2026;51.002;13.668;2022-08-19T18:56:12;32.80;;;23.57;;
4023;SDS011;2026;51.002;13.668;2022-08-19T19:01:19;32.90;;;24.20;;
4023;SDS011;2026;51.002;13.668;2022-08-19T19:06:27;30.43;;;23.60;;
4023;SDS011;2026;51.002;13.668;2022-08-19T19:11:38;30.30;;;23.77;;
4023;SDS011;2026;51.002;13.668;2022-08-19T19:16:45;38.47;;;28.17;;
4023;SDS011;2026;51.002;13.668;2022-08-19T19:21:48;37.50;;;27.23;;
4023;SDS011;2026;51.002;13.668;2022-08-19T19:26:53;36.37;;;27.87;;
4023;SDS011;2026;51.002;13.668;2022-08-19T19:31:59;34.07;;;25.93;;
4023;SDS011;2026;51.002;13.668;2022-08-19T19:37:02;34.83;;;26.13;;
4023;SDS011;2026;51.002;13.668;2022-08-19T19:42:06;36.67;;;26.80;;
4023;SDS011;2026;51.002;13.668;2022-08-19T19:47:22;37.70;;;27.60;;
4023;SDS011;2026;51.002;13.668;2022-08-19T19:52:26;33.00;;;25.37;;
4023;SDS011;2026;51.002;13.668;2022-08-19T19:57:29;35.33;;;25.70;;
4023;SDS011;2026;51.002;13.668;2022-08-19T20:02:33;35.60;;;25.97;;
4023;SDS011;2026;51.002;13.668;2022-08-19T20:07:37;33.33;;;24.90;;
4023;SDS011;2026;51.002;13.668;2022-08-19T20:12:54;34.50;;;24.70;;
4023;SDS011;2026;51.002;13.668;2022-08-19T20:17:59;30.60;;;24.33;;
4023;SDS011;2026;51.002;13.668;2022-08-19T20:23:02;33.27;;;24.40;;
4023;SDS011;2026;51.002;13.668;2022-08-19T20:28:07;36.90;;;25.90;;
4023;SDS011;2026;51.002;13.668;2022-08-19T20:33:14;34.77;;;24.53;;
4023;SDS011;2026;51.002;13.668;2022-08-19T20:38:17;31.73;;;22.77;;
4023;SDS011;2026;51.002;13.668;2022-08-19T20:43:20;30.57;;;20.47;;
4023;SDS011;2026;51.002;13.668;2022-08-19T20:48:25;28.27;;;20.50;;
4023;SDS011;2026;51.002;13.668;2022-08-19T20:53:28;25.70;;;20.50;;
4023;SDS011;2026;51.002;13.668;2022-08-19T20:58:32;28.33;;;22.27;;
4023;SDS011;2026;51.002;13.668;2022-08-19T21:03:38;32.60;;;23.70;;
4023;SDS011;2026;51.002;13.668;2022-08-19T21:08:43;34.80;;;21.97;;
4023;SDS011;2026;51.002;13.668;2022-08-19T21:13:49;30.60;;;22.30;;
4023;SDS011;2026;51.002;13.668;2022-08-19T21:18:54;30.17;;;19.87;;
4023;SDS011;2026;51.002;13.668;2022-08-19T21:23:57;27.73;;;21.80;;
4023;SDS011;2026;51.002;13.668;2022-08-19T21:29:00;33.20;;;22.00;;
4023;SDS011;2026;51.002;13.668;2022-08-19T21:34:05;26.83;;;19.37;;
4023;SDS011;2026;51.002;13.668;2022-08-19T21:39:08;31.20;;;21.43;;
4023;SDS011;2026;51.002;13.668;2022-08-19T21:44:11;28.63;;;21.57;;
4023;SDS011;2026;51.002;13.668;2022-08-19T21:49:16;26.57;;;20.67;;
4023;SDS011;2026;51.002;13.668;2022-08-19T21:54:20;29.87;;;20.63;;
4023;SDS011;2026;51.002;13.668;2022-08-19T21:59:23;27.47;;;20.00;;
4023;SDS011;2026;51.002;13.668;2022-08-19T22:04:27;26.30;;;18.93;;
4023;SDS011;2026;51.002;13.668;2022-08-19T22:09:30;32.63;;;21.80;;
4023;SDS011;2026;51.002;13.668;2022-08-19T22:14:34;28.20;;;19.50;;
4023;SDS011;2026;51.002;13.668;2022-08-19T22:19:39;24.30;;;18.47;;
4023;SDS011;2026;51.002;13.668;2022-08-19T22:24:42;29.07;;;20.93;;
4023;SDS011;2026;51.002;13.668;2022-08-19T22:29:45;26.60;;;20.50;;
4023;SDS011;2026;51.002;13.668;2022-08-19T22:34:55;29.63;;;23.00;;
4023;SDS011;2026;51.002;13.668;2022-08-19T22:39:59;28.17;;;20.13;;
4023;SDS011;2026;51.002;13.668;2022-08-19T22:45:06;27.73;;;19.83;;
4023;SDS011;2026;51.002;13.668;2022-08-19T22:50:13;32.07;;;21.40;;
4023;SDS011;2026;51.002;13.668;2022-08-19T22:55:16;28.17;;;20.70;;
4023;SDS011;2026;51.002;13.668;2022-08-19T23:00:20;29.87;;;21.60;;
4023;SDS011;2026;51.002;13.668;2022-08-19T23:05:27;28.73;;;20.90;;
4023;SDS011;2026;51.002;13.668;2022-08-19T23:10:31;35.83;;;23.33;;
4023;SDS011;2026;51.002;13.668;2022-08-19T23:15:35;30.03;;;21.43;;
4023;SDS011;2026;51.002;13.668;2022-08-19T23:20:40;29.87;;;21.80;;
4023;SDS011;2026;51.002;13.668;2022-08-19T23:25:45;35.00;;;21.30;;
4023;SDS011;2026;51.002;13.668;2022-08-19T23:30:49;32.73;;;21.53;;
4023;SDS011;2026;51.002;13.668;2022-08-19T23:35:56;25.50;;;20.10;;
4023;SDS011;2026;51.002;13.668;2022-08-19T23:41:01;33.90;;;20.03;;
4023;SDS011;2026;51.002;13.668;2022-08-19T23:46:06;35.00;;;22.00;;
4023;SDS011;2026;51.002;13.668;2022-08-19T23:51:13;30.47;;;21.43;;
4023;SDS011;2026;51.002;13.668;2022-08-19T23:56:17;35.57;;;23.70;;
